createdAt,value
2018-09-02T00:00:02.294Z,0
2018-09-02T00:01:03.052Z,0
2018-09-02T00:02:04.729Z,0
2018-09-02T00:03:06.721Z,0
2018-09-02T00:04:07.597Z,0
2018-09-02T00:05:08.315Z,0
2018-09-02T00:06:09.288Z,0
2018-09-02T00:07:10.003Z,0
2018-09-02T00:08:11.244Z,0
2018-09-02T00:09:11.942Z,0
2018-09-02T00:10:12.875Z,0
2018-09-02T00:11:13.593Z,0
2018-09-02T00:12:14.306Z,0
2018-09-02T00:13:15.035Z,0
2018-09-02T00:14:15.751Z,0
2018-09-02T00:15:16.766Z,0
2018-09-02T00:16:17.486Z,0
2018-09-02T00:17:19.940Z,0
2018-09-02T00:18:20.648Z,0
2018-09-02T00:19:21.361Z,0
2018-09-02T00:20:22.109Z,0
2018-09-02T00:21:22.796Z,0
2018-09-02T00:22:24.016Z,0
2018-09-02T00:23:24.752Z,0
2018-09-02T00:24:25.722Z,0
2018-09-02T00:25:26.393Z,0
2018-09-02T00:26:27.291Z,0
2018-09-02T00:27:28.051Z,0
2018-09-02T00:28:28.771Z,0
2018-09-02T00:29:29.730Z,0
2018-09-02T00:30:30.443Z,0
2018-09-02T00:31:31.161Z,0
2018-09-02T00:32:32.229Z,0
2018-09-02T00:33:32.934Z,0
2018-09-02T00:34:33.661Z,0
2018-09-02T00:35:34.658Z,0
2018-09-02T00:36:35.520Z,0
2018-09-02T00:37:36.242Z,0
2018-09-02T00:38:36.961Z,0
2018-09-02T00:39:37.672Z,0
2018-09-02T00:40:38.388Z,0
2018-09-02T00:41:39.104Z,0
2018-09-02T00:42:39.829Z,0
2018-09-02T00:43:40.548Z,0
2018-09-02T00:44:41.650Z,0
2018-09-02T00:45:42.359Z,0
2018-09-02T00:46:43.076Z,0
2018-09-02T00:47:43.783Z,0
2018-09-02T00:48:44.501Z,0
2018-09-02T00:49:45.224Z,0
2018-09-02T00:50:45.940Z,0
2018-09-02T00:51:46.649Z,0
2018-09-02T00:52:47.367Z,0
2018-09-02T00:53:48.092Z,0
2018-09-02T00:54:48.810Z,0
2018-09-02T00:55:49.529Z,0
2018-09-02T00:56:50.308Z,0
2018-09-02T00:57:50.958Z,0
2018-09-02T00:58:51.686Z,0
2018-09-02T00:59:52.409Z,0
2018-09-02T01:00:53.122Z,0
2018-09-02T01:01:53.835Z,0
2018-09-02T01:02:54.546Z,0
2018-09-02T01:03:55.272Z,0
2018-09-02T01:04:56.042Z,0
2018-09-02T01:05:56.760Z,0
2018-09-02T01:06:57.502Z,0
2018-09-02T01:07:58.475Z,0
2018-09-02T01:08:59.199Z,0
2018-09-02T01:10:00.257Z,0
2018-09-02T01:11:00.975Z,0
2018-09-02T01:12:01.701Z,0
2018-09-02T01:13:02.419Z,0
2018-09-02T01:14:03.387Z,0
2018-09-02T01:15:04.105Z,0
2018-09-02T01:16:04.830Z,0
2018-09-02T01:17:05.596Z,0
2018-09-02T01:18:06.312Z,0
2018-09-02T01:19:07.278Z,0
2018-09-02T01:20:07.995Z,0
2018-09-02T01:21:08.710Z,0
2018-09-02T01:22:09.487Z,0
2018-09-02T01:23:10.283Z,0
2018-09-02T01:24:10.925Z,0
2018-09-02T01:25:11.665Z,0
2018-09-02T01:26:12.374Z,0
2018-09-02T01:27:13.156Z,0
2018-09-02T01:28:13.878Z,0
2018-09-02T01:29:14.593Z,0
2018-09-02T01:30:15.316Z,0
2018-09-02T01:31:16.050Z,0
2018-09-02T01:32:16.775Z,0
2018-09-02T01:33:17.538Z,0
2018-09-02T01:34:18.255Z,0
2018-09-02T01:35:18.976Z,0
2018-09-02T01:36:19.692Z,0
2018-09-02T01:37:20.424Z,0
2018-09-02T01:38:21.134Z,0
2018-09-02T01:39:21.855Z,0
2018-09-02T01:40:22.557Z,0
2018-09-02T01:41:23.270Z,0
2018-09-02T01:42:23.977Z,0
2018-09-02T01:43:25.046Z,0
2018-09-02T01:44:25.790Z,0
2018-09-02T01:45:26.497Z,0
2018-09-02T01:46:27.215Z,0
2018-09-02T01:47:27.939Z,0
2018-09-02T01:48:28.724Z,0
2018-09-02T01:49:29.436Z,0
2018-09-02T01:50:30.154Z,0
2018-09-02T01:51:30.870Z,0
2018-09-02T01:52:31.582Z,0
2018-09-02T01:53:32.308Z,0
2018-09-02T01:54:33.274Z,0
2018-09-02T01:55:34.005Z,0
2018-09-02T01:56:34.717Z,0
2018-09-02T01:57:35.422Z,0
2018-09-02T01:58:36.151Z,0
2018-09-02T01:59:37.112Z,0
2018-09-02T02:00:37.827Z,0
2018-09-02T02:01:38.792Z,0
2018-09-02T02:02:39.510Z,0
2018-09-02T02:03:40.236Z,0
2018-09-02T02:04:41.009Z,0
2018-09-02T02:05:41.737Z,0
2018-09-02T02:06:42.457Z,0
2018-09-02T02:07:43.183Z,0
2018-09-02T02:08:43.897Z,0
2018-09-02T02:09:44.616Z,0
2018-09-02T02:10:45.338Z,0
2018-09-02T02:11:46.047Z,0
2018-09-02T02:12:46.772Z,0
2018-09-02T02:13:47.481Z,0
2018-09-02T02:14:48.198Z,0
2018-09-02T02:15:49.272Z,0
2018-09-02T02:16:49.988Z,0
2018-09-02T02:17:50.951Z,0
2018-09-02T02:18:51.667Z,0
2018-09-02T02:19:52.389Z,0
2018-09-02T02:20:53.349Z,0
2018-09-02T02:21:54.074Z,0
2018-09-02T02:22:54.802Z,0
2018-09-02T02:23:55.572Z,0
2018-09-02T02:24:56.294Z,0
2018-09-02T02:25:57.251Z,0
2018-09-02T02:26:57.971Z,0
2018-09-02T02:27:58.689Z,0
2018-09-02T02:28:59.405Z,0
2018-09-02T02:30:00.134Z,0
2018-09-02T02:31:00.844Z,0
2018-09-02T02:32:01.552Z,0
2018-09-02T02:33:02.278Z,0
2018-09-02T02:34:02.994Z,0
2018-09-02T02:35:04.064Z,0
2018-09-02T02:36:05.117Z,0
2018-09-02T02:37:05.813Z,0
2018-09-02T02:38:06.514Z,0
2018-09-02T02:39:07.243Z,0
2018-09-02T02:40:07.960Z,0
2018-09-02T02:41:08.693Z,0
2018-09-02T02:42:09.412Z,0
2018-09-02T02:43:10.131Z,0
2018-09-02T02:44:10.848Z,0
2018-09-02T02:45:11.565Z,0
2018-09-02T02:46:12.274Z,0
2018-09-02T02:47:12.995Z,0
2018-09-02T02:48:13.720Z,0
2018-09-02T02:49:14.428Z,0
2018-09-02T02:50:15.406Z,0
2018-09-02T02:51:16.119Z,0
2018-09-02T02:52:16.830Z,0
2018-09-02T02:53:17.553Z,0
2018-09-02T02:54:18.520Z,0
2018-09-02T02:55:19.240Z,0
2018-09-02T02:56:19.956Z,0
2018-09-02T02:57:20.667Z,0
2018-09-02T02:58:21.385Z,0
2018-09-02T02:59:22.098Z,0
2018-09-02T03:00:22.827Z,0
2018-09-02T03:01:23.577Z,0
2018-09-02T03:02:24.313Z,0
2018-09-02T03:03:25.023Z,0
2018-09-02T03:04:25.751Z,0
2018-09-02T03:05:26.473Z,0
2018-09-02T03:06:27.439Z,0
2018-09-02T03:07:28.162Z,0
2018-09-02T03:08:28.885Z,0
2018-09-02T03:09:29.838Z,0
2018-09-02T03:10:30.907Z,0
2018-09-02T03:11:31.615Z,0
2018-09-02T03:12:32.332Z,0
2018-09-02T03:13:33.046Z,0
2018-09-02T03:14:34.001Z,0
2018-09-02T03:15:34.728Z,0
2018-09-02T03:16:35.455Z,0
2018-09-02T03:17:36.227Z,0
2018-09-02T03:18:37.183Z,0
2018-09-02T03:19:37.904Z,0
2018-09-02T03:20:38.613Z,0
2018-09-02T03:21:39.332Z,0
2018-09-02T03:22:40.048Z,0
2018-09-02T03:23:40.770Z,0
2018-09-02T03:24:41.485Z,0
2018-09-02T03:25:42.214Z,0
2018-09-02T03:26:42.933Z,0
2018-09-02T03:27:43.664Z,0
2018-09-02T03:28:44.363Z,0
2018-09-02T03:29:45.080Z,0
2018-09-02T03:30:45.806Z,0
2018-09-02T03:31:46.529Z,0
2018-09-02T03:32:47.242Z,0
2018-09-02T03:33:47.968Z,0
2018-09-02T03:34:48.677Z,0
2018-09-02T03:35:49.398Z,0
2018-09-02T03:36:50.115Z,0
2018-09-02T03:37:50.831Z,0
2018-09-02T03:38:51.547Z,0
2018-09-02T03:39:52.320Z,0
2018-09-02T03:40:53.046Z,0
2018-09-02T03:41:53.772Z,0
2018-09-02T03:42:54.492Z,0
2018-09-02T03:43:55.219Z,0
2018-09-02T03:44:55.983Z,0
2018-09-02T03:45:56.716Z,0
2018-09-02T03:46:57.436Z,0
2018-09-02T03:47:58.156Z,0
2018-09-02T03:48:58.877Z,0
2018-09-02T03:49:59.605Z,0
2018-09-02T03:51:00.324Z,0
2018-09-02T03:52:01.044Z,0
2018-09-02T03:53:01.757Z,0
2018-09-02T03:54:02.725Z,0
2018-09-02T03:55:03.431Z,0
2018-09-02T03:56:04.250Z,0
2018-09-02T03:57:04.959Z,0
2018-09-02T03:58:05.921Z,0
2018-09-02T03:59:06.649Z,0
2018-09-02T04:00:07.421Z,0
2018-09-02T04:01:08.145Z,0
2018-09-02T04:02:08.860Z,0
2018-09-02T04:03:09.580Z,0
2018-09-02T04:04:10.314Z,4
2018-09-02T04:05:11.023Z,4
2018-09-02T04:06:11.749Z,4
2018-09-02T04:07:12.464Z,4
2018-09-02T04:08:13.440Z,4
2018-09-02T04:09:14.401Z,8
2018-09-02T04:10:15.121Z,4
2018-09-02T04:11:15.936Z,8
2018-09-02T04:12:16.606Z,12
2018-09-02T04:13:17.337Z,12
2018-09-02T04:14:18.062Z,16
2018-09-02T04:15:18.781Z,12
2018-09-02T04:16:19.545Z,20
2018-09-02T04:17:20.273Z,20
2018-09-02T04:18:20.988Z,24
2018-09-02T04:19:21.712Z,32
2018-09-02T04:20:22.429Z,36
2018-09-02T04:21:23.201Z,40
2018-09-02T04:22:23.922Z,48
2018-09-02T04:23:24.890Z,60
2018-09-02T04:24:25.606Z,64
2018-09-02T04:25:26.320Z,80
2018-09-02T04:26:27.033Z,92
2018-09-02T04:27:27.766Z,100
2018-09-02T04:28:28.495Z,116
2018-09-02T04:29:29.219Z,132
2018-09-02T04:30:29.943Z,148
2018-09-02T04:31:30.676Z,164
2018-09-02T04:32:31.391Z,180
2018-09-02T04:33:32.141Z,204
2018-09-02T04:34:32.831Z,224
2018-09-02T04:35:33.579Z,248
2018-09-02T04:36:34.325Z,272
2018-09-02T04:37:35.037Z,296
2018-09-02T04:38:35.764Z,324
2018-09-02T04:39:36.476Z,352
2018-09-02T04:40:37.225Z,380
2018-09-02T04:41:37.953Z,416
2018-09-02T04:42:38.674Z,448
2018-09-02T04:43:39.395Z,488
2018-09-02T04:44:40.114Z,524
2018-09-02T04:45:40.839Z,564
2018-09-02T04:46:41.579Z,604
2018-09-02T04:47:42.296Z,648
2018-09-02T04:48:43.015Z,696
2018-09-02T04:49:43.743Z,740
2018-09-02T04:50:44.479Z,788
2018-09-02T04:51:45.559Z,840
2018-09-02T04:52:46.541Z,892
2018-09-02T04:53:47.257Z,948
2018-09-02T04:54:47.989Z,1000
2018-09-02T04:55:48.977Z,1056
2018-09-02T04:56:49.755Z,1108
2018-09-02T04:57:50.481Z,1168
2018-09-02T04:58:51.216Z,1232
2018-09-02T04:59:51.951Z,1288
2018-09-02T05:00:52.673Z,1344
2018-09-02T05:01:53.387Z,1404
2018-09-02T05:02:54.106Z,1464
2018-09-02T05:03:54.823Z,1524
2018-09-02T05:04:55.572Z,1580
2018-09-02T05:05:56.299Z,1640
2018-09-02T05:06:57.023Z,1704
2018-09-02T05:07:57.995Z,1764
2018-09-02T05:08:58.716Z,1824
2018-09-02T05:09:59.440Z,1884
2018-09-02T05:11:00.167Z,1944
2018-09-02T05:12:00.902Z,2004
2018-09-02T05:13:01.623Z,2068
2018-09-02T05:14:02.453Z,2124
2018-09-02T05:15:03.125Z,2188
2018-09-02T05:16:03.835Z,2252
2018-09-02T05:17:04.560Z,2312
2018-09-02T05:18:05.285Z,2368
2018-09-02T05:19:06.003Z,2428
2018-09-02T05:20:06.725Z,2488
2018-09-02T05:21:07.447Z,2556
2018-09-02T05:22:08.185Z,2620
2018-09-02T05:23:08.902Z,2684
2018-09-02T05:24:09.618Z,2752
2018-09-02T05:25:10.334Z,2812
2018-09-02T05:26:11.058Z,2876
2018-09-02T05:27:11.790Z,2940
2018-09-02T05:28:12.508Z,3000
2018-09-02T05:29:13.246Z,3064
2018-09-02T05:30:13.967Z,3128
2018-09-02T05:31:14.695Z,3192
2018-09-02T05:32:15.468Z,3260
2018-09-02T05:33:16.195Z,3328
2018-09-02T05:34:16.916Z,3396
2018-09-02T05:35:17.643Z,3464
2018-09-02T05:36:18.361Z,3536
2018-09-02T05:37:19.343Z,3604
2018-09-02T05:38:20.051Z,3668
2018-09-02T05:39:20.779Z,3732
2018-09-02T05:40:21.499Z,3792
2018-09-02T05:41:22.224Z,3860
2018-09-02T05:42:22.951Z,3928
2018-09-02T05:43:23.679Z,3992
2018-09-02T05:44:24.404Z,4060
2018-09-02T05:45:25.121Z,4116
2018-09-02T05:46:25.909Z,4168
2018-09-02T05:47:26.631Z,4220
2018-09-02T05:48:27.353Z,4268
2018-09-02T05:49:28.069Z,4316
2018-09-02T05:50:28.799Z,4356
2018-09-02T05:51:29.518Z,4392
2018-09-02T05:52:30.240Z,4436
2018-09-02T05:53:30.971Z,4488
2018-09-02T05:54:31.697Z,4540
2018-09-02T05:55:32.412Z,4600
2018-09-02T05:56:33.130Z,4660
2018-09-02T05:57:34.241Z,4720
2018-09-02T05:58:34.934Z,4776
2018-09-02T05:59:35.660Z,4828
2018-09-02T06:00:36.386Z,4872
2018-09-02T06:01:37.108Z,4916
2018-09-02T06:02:37.871Z,4968
2018-09-02T06:03:38.549Z,5012
2018-09-02T06:04:39.519Z,5068
2018-09-02T06:05:40.262Z,5108
2018-09-02T06:06:40.983Z,5132
2018-09-02T06:07:41.919Z,5176
2018-09-02T06:08:42.641Z,5212
2018-09-02T06:09:43.380Z,5256
2018-09-02T06:10:44.102Z,5312
2018-09-02T06:11:44.831Z,5356
2018-09-02T06:12:45.551Z,5384
2018-09-02T06:13:46.282Z,5436
2018-09-02T06:14:47.058Z,5492
2018-09-02T06:15:47.801Z,5536
2018-09-02T06:16:48.516Z,5572
2018-09-02T06:17:49.490Z,5612
2018-09-02T06:18:50.209Z,5636
2018-09-02T06:19:50.930Z,5680
2018-09-02T06:20:51.654Z,5744
2018-09-02T06:21:52.371Z,5808
2018-09-02T06:22:53.106Z,5828
2018-09-02T06:23:53.834Z,5852
2018-09-02T06:24:54.558Z,5896
2018-09-02T06:25:55.290Z,5916
2018-09-02T06:26:56.022Z,5940
2018-09-02T06:27:56.993Z,5956
2018-09-02T06:28:57.716Z,5984
2018-09-02T06:29:58.507Z,5992
2018-09-02T06:30:59.218Z,6004
2018-09-02T06:31:59.938Z,6024
2018-09-02T06:33:00.784Z,6024
2018-09-02T06:34:01.394Z,6044
2018-09-02T06:35:02.125Z,6064
2018-09-02T06:36:02.847Z,6068
2018-09-02T06:37:03.568Z,6096
2018-09-02T06:38:04.302Z,6108
2018-09-02T06:39:05.026Z,6132
2018-09-02T06:40:05.756Z,6156
2018-09-02T06:41:06.833Z,6180
2018-09-02T06:42:07.555Z,6404
2018-09-02T06:43:08.283Z,7436
2018-09-02T06:44:09.006Z,6212
2018-09-02T06:45:09.731Z,6236
2018-09-02T06:46:10.499Z,6280
2018-09-02T06:47:11.224Z,6300
2018-09-02T06:48:11.949Z,6564
2018-09-02T06:49:12.670Z,6400
2018-09-02T06:50:13.395Z,6672
2018-09-02T06:51:14.120Z,6952
2018-09-02T06:52:14.841Z,6564
2018-09-02T06:53:15.559Z,6592
2018-09-02T06:54:16.285Z,7688
2018-09-02T06:55:17.013Z,7760
2018-09-02T06:56:17.749Z,6776
2018-09-02T06:57:18.477Z,6752
2018-09-02T06:58:19.260Z,6812
2018-09-02T06:59:19.986Z,6852
2018-09-02T07:00:20.959Z,6900
2018-09-02T07:01:21.695Z,6940
2018-09-02T07:02:22.422Z,6976
2018-09-02T07:03:23.147Z,7032
2018-09-02T07:04:23.876Z,7092
2018-09-02T07:05:24.597Z,7304
2018-09-02T07:06:25.330Z,7676
2018-09-02T07:07:26.072Z,7268
2018-09-02T07:08:26.791Z,7308
2018-09-02T07:09:27.509Z,7360
2018-09-02T07:10:28.245Z,7412
2018-09-02T07:11:28.970Z,7480
2018-09-02T07:12:29.689Z,7508
2018-09-02T07:13:30.685Z,7528
2018-09-02T07:14:31.491Z,7664
2018-09-02T07:15:32.119Z,7636
2018-09-02T07:16:32.847Z,7764
2018-09-02T07:17:33.568Z,7732
2018-09-02T07:18:34.306Z,7780
2018-09-02T07:19:35.015Z,7852
2018-09-02T07:20:35.993Z,7920
2018-09-02T07:21:36.724Z,7984
2018-09-02T07:22:37.449Z,8000
2018-09-02T07:23:38.193Z,8068
2018-09-02T07:24:38.937Z,8100
2018-09-02T07:25:39.705Z,8088
2018-09-02T07:26:40.678Z,8120
2018-09-02T07:27:41.390Z,8164
2018-09-02T07:28:42.121Z,8212
2018-09-02T07:29:42.849Z,8456
2018-09-02T07:30:43.621Z,8528
2018-09-02T07:31:44.342Z,8528
2018-09-02T07:32:45.610Z,8404
2018-09-02T07:33:46.321Z,8572
2018-09-02T07:34:47.291Z,8448
2018-09-02T07:35:48.010Z,8504
2018-09-02T07:36:48.741Z,8532
2018-09-02T07:37:49.457Z,8728
2018-09-02T07:38:50.194Z,8888
2018-09-02T07:39:50.923Z,10248
2018-09-02T07:40:51.664Z,9752
2018-09-02T07:41:52.385Z,9140
2018-09-02T07:42:53.367Z,10792
2018-09-02T07:43:54.204Z,9104
2018-09-02T07:44:54.817Z,9268
2018-09-02T07:45:55.555Z,11484
2018-09-02T07:46:56.324Z,14164
2018-09-02T07:47:57.003Z,10876
2018-09-02T07:48:57.730Z,18752
2018-09-02T07:49:58.465Z,22144
2018-09-02T07:50:59.458Z,28352
2018-09-02T07:52:00.193Z,24352
2018-09-02T07:53:00.921Z,22368
2018-09-02T07:54:01.660Z,41280
2018-09-02T07:55:02.392Z,48480
2018-09-02T07:56:03.174Z,43072
2018-09-02T07:57:03.898Z,39488
2018-09-02T07:58:04.625Z,40416
2018-09-02T07:59:05.346Z,39264
2018-09-02T08:00:06.072Z,38016
2018-09-02T08:01:06.858Z,40288
2018-09-02T08:02:07.578Z,42400
2018-09-02T08:03:08.554Z,33152
2018-09-02T08:04:09.283Z,35360
2018-09-02T08:05:10.015Z,32032
2018-09-02T08:06:10.749Z,44128
2018-09-02T08:07:11.471Z,36960
2018-09-02T08:08:12.206Z,48160
2018-09-02T08:09:12.938Z,48288
2018-09-02T08:10:13.668Z,44992
2018-09-02T08:11:14.404Z,30784
2018-09-02T08:12:15.147Z,49024
2018-09-02T08:13:15.865Z,45184
2018-09-02T08:14:16.646Z,43744
2018-09-02T08:15:17.378Z,46400
2018-09-02T08:16:18.102Z,47616
2018-09-02T08:17:18.823Z,47008
2018-09-02T08:18:19.553Z,46688
2018-09-02T08:19:20.292Z,44864
2018-09-02T08:20:21.027Z,43840
2018-09-02T08:21:21.741Z,46464
2018-09-02T08:22:22.460Z,50368
2018-09-02T08:23:23.208Z,49728
2018-09-02T08:24:23.941Z,46592
2018-09-02T08:25:24.671Z,46400
2018-09-02T08:26:25.402Z,51744
2018-09-02T08:27:26.131Z,56384
2018-09-02T08:28:26.867Z,55808
2018-09-02T08:29:27.591Z,51616
2018-09-02T08:30:28.340Z,49696
2018-09-02T08:31:29.051Z,49888
2018-09-02T08:32:29.839Z,49664
2018-09-02T08:33:30.569Z,47616
2018-09-02T08:34:31.317Z,46304
2018-09-02T08:35:32.034Z,46880
2018-09-02T08:36:33.023Z,45984
2018-09-02T08:37:33.800Z,42272
2018-09-02T08:38:34.533Z,40704
2018-09-02T08:39:35.261Z,42912
2018-09-02T08:40:35.996Z,43616
2018-09-02T08:41:36.734Z,41632
2018-09-02T08:42:37.459Z,40960
2018-09-02T08:43:38.208Z,44160
2018-09-02T08:44:38.932Z,49824
2018-09-02T08:45:39.663Z,50752
2018-09-02T08:46:40.408Z,45504
2018-09-02T08:47:41.144Z,42208
2018-09-02T08:48:41.867Z,45024
2018-09-02T08:49:42.595Z,49856
2018-09-02T08:50:43.323Z,51360
2018-09-02T08:51:44.060Z,49792
2018-09-02T08:52:44.805Z,48000
2018-09-02T08:53:45.528Z,48640
2018-09-02T08:54:46.268Z,51424
2018-09-02T08:55:47.003Z,53952
2018-09-02T08:56:47.728Z,56416
2018-09-02T08:57:48.469Z,56864
2018-09-02T08:58:49.466Z,57696
2018-09-02T08:59:50.194Z,59680
2018-09-02T09:00:51.186Z,59104
2018-09-02T09:01:51.915Z,56896
2018-09-02T09:02:52.657Z,56352
2018-09-02T09:03:53.382Z,58944
2018-09-02T09:04:54.139Z,63488
2018-09-02T09:05:54.879Z,64800
2018-09-02T09:06:55.677Z,61440
2018-09-02T09:07:56.497Z,58496
2018-09-02T09:08:57.372Z,62592
2018-09-02T09:09:57.855Z,68320
2018-09-02T09:10:58.582Z,66080
2018-09-02T09:11:59.328Z,58336
2018-09-02T09:13:00.047Z,57248
2018-09-02T09:14:00.806Z,62176
2018-09-02T09:15:01.506Z,67296
2018-09-02T09:16:02.494Z,67360
2018-09-02T09:17:03.297Z,65472
2018-09-02T09:18:04.000Z,65856
2018-09-02T09:19:04.735Z,68480
2018-09-02T09:20:05.459Z,72224
2018-09-02T09:21:06.207Z,70752
2018-09-02T09:22:07.323Z,64736
2018-09-02T09:23:08.029Z,60672
2018-09-02T09:24:08.801Z,62688
2018-09-02T09:25:09.581Z,68256
2018-09-02T09:26:10.231Z,69504
2018-09-02T09:27:11.219Z,67232
2018-09-02T09:28:11.952Z,67392
2018-09-02T09:29:12.696Z,70240
2018-09-02T09:30:13.423Z,73728
2018-09-02T09:31:14.166Z,75040
2018-09-02T09:32:14.953Z,73024
2018-09-02T09:33:15.639Z,70976
2018-09-02T09:34:16.366Z,68128
2018-09-02T09:35:17.096Z,68000
2018-09-02T09:36:17.838Z,68352
2018-09-02T09:37:18.568Z,69216
2018-09-02T09:38:19.297Z,70176
2018-09-02T09:39:20.032Z,70304
2018-09-02T09:40:20.768Z,69088
2018-09-02T09:41:21.503Z,70720
2018-09-02T09:42:22.238Z,71840
2018-09-02T09:43:22.966Z,71264
2018-09-02T09:44:23.711Z,69856
2018-09-02T09:45:24.454Z,68736
2018-09-02T09:46:25.180Z,68544
2018-09-02T09:47:25.910Z,67200
2018-09-02T09:48:26.641Z,67488
2018-09-02T09:49:27.686Z,68864
2018-09-02T09:50:28.403Z,69344
2018-09-02T09:51:29.132Z,67872
2018-09-02T09:52:29.868Z,65600
2018-09-02T09:53:30.589Z,65280
2018-09-02T09:54:31.320Z,64576
2018-09-02T09:55:32.081Z,63744
2018-09-02T09:56:32.786Z,66144
2018-09-02T09:57:33.509Z,69824
2018-09-02T09:58:34.257Z,70912
2018-09-02T09:59:34.994Z,68640
2018-09-02T10:00:35.733Z,66656
2018-09-02T10:01:36.470Z,67392
2018-09-02T10:02:37.199Z,66496
2018-09-02T10:03:37.996Z,67136
2018-09-02T10:04:38.674Z,66240
2018-09-02T10:05:39.761Z,65824
2018-09-02T10:06:40.481Z,66368
2018-09-02T10:07:41.235Z,68768
2018-09-02T10:08:41.964Z,71904
2018-09-02T10:09:42.701Z,72160
2018-09-02T10:10:43.441Z,72736
2018-09-02T10:11:44.482Z,72864
2018-09-02T10:12:45.158Z,72064
2018-09-02T10:13:45.875Z,72128
2018-09-02T10:14:46.611Z,73952
2018-09-02T10:15:47.349Z,76352
2018-09-02T10:16:48.073Z,76032
2018-09-02T10:17:48.811Z,75264
2018-09-02T10:18:49.544Z,74176
2018-09-02T10:19:50.286Z,74176
2018-09-02T10:20:51.017Z,74656
2018-09-02T10:21:51.755Z,75264
2018-09-02T10:22:52.480Z,73984
2018-09-02T10:23:53.217Z,71616
2018-09-02T10:24:53.998Z,71840
2018-09-02T10:25:54.731Z,72864
2018-09-02T10:26:55.477Z,75008
2018-09-02T10:27:56.215Z,74528
2018-09-02T10:28:56.947Z,72128
2018-09-02T10:29:57.924Z,72000
2018-09-02T10:30:58.653Z,74432
2018-09-02T10:31:59.384Z,78720
2018-09-02T10:33:00.115Z,80448
2018-09-02T10:34:00.837Z,79712
2018-09-02T10:35:01.623Z,80032
2018-09-02T10:36:02.609Z,80352
2018-09-02T10:37:03.352Z,78688
2018-09-02T10:38:04.076Z,76448
2018-09-02T10:39:04.809Z,75584
2018-09-02T10:40:05.595Z,76864
2018-09-02T10:41:06.355Z,77984
2018-09-02T10:42:07.548Z,75808
2018-09-02T10:43:08.645Z,73088
2018-09-02T10:44:09.373Z,70176
2018-09-02T10:45:10.103Z,69600
2018-09-02T10:46:10.887Z,72768
2018-09-02T10:47:11.622Z,76064
2018-09-02T10:48:12.366Z,77152
2018-09-02T10:49:13.090Z,74464
2018-09-02T10:50:13.838Z,72480
2018-09-02T10:51:15.379Z,74560
2018-09-02T10:52:16.271Z,76224
2018-09-02T10:53:17.001Z,74304
2018-09-02T10:54:17.736Z,70432
2018-09-02T10:55:18.470Z,67552
2018-09-02T10:56:19.263Z,67968
2018-09-02T10:57:20.045Z,73280
2018-09-02T10:58:20.856Z,80992
2018-09-02T10:59:21.585Z,87360
2018-09-02T11:00:22.335Z,90784
2018-09-02T11:01:23.422Z,88672
2018-09-02T11:02:24.155Z,82240
2018-09-02T11:03:24.880Z,74784
2018-09-02T11:04:25.682Z,72000
2018-09-02T11:05:26.391Z,73248
2018-09-02T11:06:27.119Z,72736
2018-09-02T11:07:27.895Z,71936
2018-09-02T11:08:28.627Z,70336
2018-09-02T11:09:29.383Z,71648
2018-09-02T11:10:30.110Z,72768
2018-09-02T11:11:30.848Z,75040
2018-09-02T11:12:31.575Z,77568
2018-09-02T11:13:32.806Z,79264
2018-09-02T11:14:33.583Z,81248
2018-09-02T11:15:34.332Z,82304
2018-09-02T11:16:35.054Z,80544
2018-09-02T11:17:36.064Z,76352
2018-09-02T11:18:38.040Z,76288
2018-09-02T11:19:39.173Z,80672
2018-09-02T11:20:39.935Z,83328
2018-09-02T11:21:40.691Z,81056
2018-09-02T11:22:41.431Z,77824
2018-09-02T11:23:42.178Z,76704
2018-09-02T11:24:43.506Z,78560
2018-09-02T11:25:44.235Z,82784
2018-09-02T11:26:44.967Z,80736
2018-09-02T11:27:45.709Z,74016
2018-09-02T11:28:46.440Z,68288
2018-09-02T11:29:47.180Z,69824
2018-09-02T11:30:47.920Z,76384
2018-09-02T11:31:49.049Z,84224
2018-09-02T11:32:49.870Z,84960
2018-09-02T11:33:50.609Z,80704
2018-09-02T11:34:51.435Z,76704
2018-09-02T11:35:52.177Z,73440
2018-09-02T11:36:53.010Z,73664
2018-09-02T11:37:53.910Z,75488
2018-09-02T11:38:54.695Z,77856
2018-09-02T11:39:55.488Z,76000
2018-09-02T11:40:56.235Z,73568
2018-09-02T11:41:56.959Z,74080
2018-09-02T11:42:58.025Z,76864
2018-09-02T11:43:59.295Z,79328
2018-09-02T11:45:00.131Z,80736
2018-09-02T11:46:01.113Z,80224
2018-09-02T11:47:02.167Z,77280
2018-09-02T11:48:03.096Z,73632
2018-09-02T11:49:03.890Z,72800
2018-09-02T11:50:04.637Z,73696
2018-09-02T11:51:05.391Z,73536
2018-09-02T11:52:06.133Z,73440
2018-09-02T11:53:07.159Z,74368
2018-09-02T11:54:07.863Z,75072
2018-09-02T11:55:08.594Z,75776
2018-09-02T11:56:09.386Z,74336
2018-09-02T11:57:10.133Z,74560
2018-09-02T11:58:10.869Z,78240
2018-09-02T11:59:11.592Z,80064
2018-09-02T12:00:12.320Z,77184
2018-09-02T12:01:13.063Z,74816
2018-09-02T12:02:14.062Z,76992
2018-09-02T12:03:14.807Z,81504
2018-09-02T12:04:15.536Z,84352
2018-09-02T12:05:16.281Z,84064
2018-09-02T12:06:17.008Z,82784
2018-09-02T12:07:17.763Z,81728
2018-09-02T12:08:18.488Z,81504
2018-09-02T12:09:19.257Z,78912
2018-09-02T12:10:19.990Z,77344
2018-09-02T12:11:20.732Z,77344
2018-09-02T12:12:21.468Z,76448
2018-09-02T12:13:22.214Z,76928
2018-09-02T12:14:23.024Z,77376
2018-09-02T12:15:23.697Z,77504
2018-09-02T12:16:24.423Z,77824
2018-09-02T12:17:25.163Z,77120
2018-09-02T12:18:25.898Z,76832
2018-09-02T12:19:26.625Z,75872
2018-09-02T12:20:27.357Z,74688
2018-09-02T12:21:28.089Z,75776
2018-09-02T12:22:28.852Z,80896
2018-09-02T12:23:29.576Z,77408
2018-09-02T12:24:30.324Z,71872
2018-09-02T12:25:31.059Z,68224
2018-09-02T12:26:31.801Z,68992
2018-09-02T12:27:32.540Z,71136
2018-09-02T12:28:33.341Z,73152
2018-09-02T12:29:34.078Z,75360
2018-09-02T12:30:34.818Z,75424
2018-09-02T12:31:35.578Z,72928
2018-09-02T12:32:36.300Z,68608
2018-09-02T12:33:37.089Z,65120
2018-09-02T12:34:37.843Z,64864
2018-09-02T12:35:38.581Z,67584
2018-09-02T12:36:39.319Z,66880
2018-09-02T12:37:40.043Z,59872
2018-09-02T12:38:40.874Z,54944
2018-09-02T12:39:41.662Z,57536
2018-09-02T12:40:42.401Z,66784
2018-09-02T12:41:43.123Z,71968
2018-09-02T12:42:43.863Z,68160
2018-09-02T12:43:44.925Z,59520
2018-09-02T12:44:45.671Z,52960
2018-09-02T12:45:46.696Z,54560
2018-09-02T12:46:47.431Z,64672
2018-09-02T12:47:48.232Z,71936
2018-09-02T12:48:48.920Z,68096
2018-09-02T12:49:49.653Z,61728
2018-09-02T12:50:50.441Z,61632
2018-09-02T12:51:51.196Z,65824
2018-09-02T12:52:51.936Z,70624
2018-09-02T12:53:52.686Z,75488
2018-09-02T12:54:53.420Z,77504
2018-09-02T12:55:54.206Z,74304
2018-09-02T12:56:55.188Z,69344
2018-09-02T12:57:56.677Z,60736
2018-09-02T12:58:57.847Z,64032
2018-09-02T12:59:58.656Z,54112
2018-09-02T13:00:59.480Z,60832
2018-09-02T13:02:00.222Z,76672
2018-09-02T13:03:00.966Z,76576
2018-09-02T13:04:01.727Z,84384
2018-09-02T13:05:02.457Z,29664
2018-09-02T13:06:03.195Z,26336
2018-09-02T13:07:03.926Z,27616
2018-09-02T13:08:04.672Z,28864
2018-09-02T13:09:05.407Z,30112
2018-09-02T13:10:06.156Z,33216
2018-09-02T13:11:06.887Z,33056
2018-09-02T13:12:07.671Z,32448
2018-09-02T13:13:08.652Z,32096
2018-09-02T13:14:09.391Z,31808
2018-09-02T13:15:10.165Z,31520
2018-09-02T13:16:10.872Z,31520
2018-09-02T13:17:11.594Z,31552
2018-09-02T13:18:12.594Z,31552
2018-09-02T13:19:13.332Z,31296
2018-09-02T13:20:14.059Z,30912
2018-09-02T13:21:14.797Z,30464
2018-09-02T13:22:15.524Z,26976
2018-09-02T13:23:16.277Z,29632
2018-09-02T13:24:17.004Z,29216
2018-09-02T13:25:17.739Z,29280
2018-09-02T13:26:18.467Z,29312
2018-09-02T13:27:19.273Z,29728
2018-09-02T13:28:20.011Z,29920
2018-09-02T13:29:20.741Z,29920
2018-09-02T13:30:21.478Z,30176
2018-09-02T13:31:22.217Z,30336
2018-09-02T13:32:22.949Z,30560
2018-09-02T13:33:23.694Z,31328
2018-09-02T13:34:24.433Z,31776
2018-09-02T13:35:25.177Z,31296
2018-09-02T13:36:25.902Z,30048
2018-09-02T13:37:26.661Z,28896
2018-09-02T13:38:27.400Z,28032
2018-09-02T13:39:28.126Z,27296
2018-09-02T13:40:28.875Z,26560
2018-09-02T13:41:29.605Z,26112
2018-09-02T13:42:30.344Z,25984
2018-09-02T13:43:31.073Z,26048